Maunaloa, HI (96770)

4:53 PM HST on May 05, 2015 (GMT -1000)
Molokai | | Change Station
CLOSE
Current Station
Airport
Location: Molokai,
Elevation: 449 ft
Nearby Weather Stations
Active Advisory: High Surf Advisory

Elev 449 ft 21.15 °N, 157.10 °W | Updated 59 minutes ago

Scattered Clouds
Scattered Clouds
79 °F
Feels Like 79 °F
N
20
Wind Variable Wind from NE
Gusts 32 mph

Today
High -- | Low -- °F
--% Chance of Precip.
Yesterday
High -- | Low -- °F
Precip. -- in
5:55 AM 6:55 PM
Waning Gibbous, 96% visible
Pressure 30.02 in
Visibility 10.0 miles
Clouds Few 3500 ft
Scattered Clouds 5000 ft
Dew Point 61 °F
Humidity 54%
Rainfall 0.00 in
Snow Depth Not available.
UV 4 out of 12
Pollen Not available.
Air Quality Not available.
Flu Activity Regional
METAR PHMK 060154Z 05017G28KT 10SM FEW035 SCT050 26/16 A3002 RMK AO2 PK WND 06028/0149 SLP166 T02610161

More Conditions Fewer Conditions

Pressure 30.02 in
Visibility 10.0 miles
Clouds Few 3500 ft
Scattered Clouds 5000 ft
Dew Point 61 °F
Humidity 54%
Rainfall 0.00 in
Snow Depth Not available.
UV 4 out of 12
Pollen Not available.
Air Quality Not available.
Flu Activity Regional
METAR PHMK 060154Z 05017G28KT 10SM FEW035 SCT050 26/16 A3002 RMK AO2 PK WND 06028/0149 SLP166 T02610161

More Conditions Fewer Conditions

10-Day Weather Forecast

Almanac

Astronomy

May. 05, 2015 Rise Set
Actual Time
Civil Twilight
Nautical Twilight
Astronomical Twilight
Moon
Length of Visible Light
Length of Day
Tomorrow will be .
, % of the Moon is Illuminated

Today's Extremes

State Highs State Lows

Community

WunderPhotos

Upload Photos

1,819,049 photos uploaded!

WunderBlogs® & News

Nearby

Air Quality

  Air Quality AQ Index Pollutant
Not available.

Snow Depth

Station Depth Elevation

Earthquake Activity

City Distance Mag. Time & Date
Minimum magnitude displayed is 2.5.

Coastal Water Temperatures

Place Temperature

Stations

Nearby Weather Stations

Station Location Temp. Windchill Dew Point Humidity Wind Precip. Elev Updated Type
                   
High Surf Advisory
Statement as of 3:13 PM HST on May 05, 2015

... High surf advisory in effect from 4 am Wednesday to 10 am HST
Thursday...

The National Weather Service in Honolulu has issued a high surf
advisory... which is in effect from 4 am Wednesday to 10 am HST
Thursday.

* Surf... 6 to 8 feet.

* Timing... building tonight and peaking Wednesday. Gradually
diminishing Thursday and Friday.

* Impacts... moderate... expect strong breaking waves... shore
break... and strong longshore and rip currents making swimming
difficult and dangerous.

Precautionary/preparedness actions...

Beachgoers... swimmers... and surfers should heed all advice given
by ocean safety officials and exercise caution. If in doubt... do
not go out. Boaters should expect recreational surfers and body
boarders utilizing Harbor channels to access surfing areas.



Birchard